Terminal Aerodrome Forecast
Issued by NWS

Home | Current Version | Previous Version | Text Only | Print | Product List | Glossary On
Versions: 1 2 3 4 5 6 7 8 9 10 11 12 13 14 15 16 17 18 19 20 21 22 23 24 25 26 27 28 29 30 31 32 33
000
FTUS45 KBOU 281732
TAFBJC
TAF
KBJC 281732Z 2818/2918 01010G18KT 5SM -SHRA BKN010 OVC015
      TEMPO 2820/2824 03011KT 3SM -SHRA BR OVC007
     FM290100 03012KT 3SM -RA BR BKN005 OVC010
     FM290400 05012G18KT 2SM -RA BR OVC007
      TEMPO 2904/2908 1SM -RASN BR OVC005
     FM290800 02011KT 3SM -SN BR BKN007 OVC020
     FM291300 36012KT 5SM -RA BR SCT010 BKN030
     FM291700 36015KT 5SM BR SCT020 BKN050=

USA.gov is the U.S. government's official web portal to all federal, state and local government web resources and services.